Previous Day
Next Day
Current Day
SHEF ID: FVSO2 FAIRVIEW
STATION TYPE: Mesonet
PRECIP AIR-TEMP WIND-DIRWIND-SPEED REL-HUMID SOLAR-RAD
in F deg mph % W/m2
Raw-Meson Raw-Meson Raw-Meson Raw-Meson Raw-Meson Raw-Meson
(US/Central)
05/16 00:00 0.00 68.18 151.75 6.09 86.00 0.00
05/16 01:00 0.00 68.00 149.50 5.37 86.50 0.00
05/16 02:00 0.00 66.83 133.50 5.87 89.25 0.00
05/16 03:00 0.00 65.34 154.50 6.49 93.25 0.00
05/16 04:00 0.00 65.21 154.50 5.70 93.50 0.00
05/16 05:00 0.00 66.65 164.25 8.67 88.00 0.00
05/16 06:00 0.00 65.97 164.00 9.34 88.25 0.00
05/16 07:00 0.00 65.75 154.00 11.46 89.25 8.25
05/16 08:00 0.00 65.62 145.00 7.38 91.00 62.00
05/16 09:00 0.00 67.59 170.50 8.61 86.50 104.00
05/16 10:00 0.00 68.99 183.50 10.51 81.75 114.75
05/16 11:00 0.25 70.52 188.75 13.37 78.25 310.75
05/16 12:00 0.74 68.54 186.75 8.72 85.00 59.50
05/16 13:00 0.34 64.85 163.50 9.79 96.50 13.00
05/16 14:00 0.01 63.77 157.75 9.45 96.50 106.50
05/16 15:00 0.00 66.25 156.00 8.56 94.25 287.25
05/16 16:00 0.00 69.17 152.75 8.95 85.25 654.25
05/16 17:00 0.00 70.03 143.00 10.79 80.50 433.75
05/16 18:00 0.00 69.80 137.00 8.61 79.75 273.50
05/16 19:00 0.00 70.03 136.75 6.88 77.75 235.75
05/16 20:00 0.00 69.98 130.00 7.61 78.00 192.75
05/16 21:00 0.00 65.80 142.00 5.93 87.25 6.25
05/16 22:00 0.00 62.60 92.25 3.13 94.25 0.00
05/16 23:00 ---- 59.99 82.50 1.96 97.25 0.00